Time;durP1;ratioP1;P1;durP2;ratioP2;P2;SDS_P1;SDS_P2;PMS_P1;PMS_P2;Temp;Humidity;BMP_temperature;BMP_pressure;BME280_temperature;BME280_humidity;BME280_pressure;Samples;Min_cycle;Max_cycle;Signal;HPM_P1;HPM_P2
2023/01/25 00:02:20;;;;;;;19.58;8.18;;;-0.70;99.90;;;;;;5037257;28;20532;-62
2023/01/25 00:04:46;;;;;;;14.05;7.80;;;-0.80;99.90;;;;;;5036848;28;20045;-63
2023/01/25 00:07:12;;;;;;;17.23;7.18;;;-0.80;99.90;;;;;;5036877;28;20128;-62
2023/01/25 00:09:37;;;;;;;14.80;7.38;;;-0.80;99.90;;;;;;5037117;28;20128;-61
2023/01/25 00:12:03;;;;;;;14.85;8.30;;;-0.80;99.90;;;;;;5037435;28;20041;-63
2023/01/25 00:14:29;;;;;;;15.82;8.63;;;-0.70;99.90;;;;;;5035764;28;20040;-61
2023/01/25 00:16:54;;;;;;;34.55;7.85;;;-0.70;99.90;;;;;;5034407;28;20163;-61
2023/01/25 00:19:20;;;;;;;20.05;6.68;;;-0.70;99.90;;;;;;5023210;28;20041;-61
2023/01/25 00:21:50;;;;;;;25.35;7.47;;;-0.70;99.90;;;;;;5020923;28;20045;-63
2023/01/25 00:24:16;;;;;;;41.28;8.05;;;-0.70;99.90;;;;;;5020371;28;20079;-62
2023/01/25 00:26:42;;;;;;;25.73;7.82;;;-0.80;99.90;;;;;;5021931;28;20106;-61
2023/01/25 00:29:12;;;;;;;16.17;6.75;;;-0.90;99.90;;;;;;5019739;28;20033;-63
2023/01/25 00:31:58;;;;;;;22.85;6.95;;;-0.80;99.90;;;;;;5023481;28;20091;-63
2023/01/25 00:34:23;;;;;;;32.00;7.05;;;-0.80;99.90;;;;;;5024106;28;20037;-63
2023/01/25 00:37:07;;;;;;;45.17;7.97;;;-0.80;99.90;;;;;;5026073;28;20037;-62
2023/01/25 00:39:33;;;;;;;13.82;7.00;;;-0.90;99.90;;;;;;5024687;28;20464;-62
2023/01/25 00:41:58;;;;;;;14.93;6.55;;;-0.90;99.90;;;;;;5026504;28;20041;-64
2023/01/25 00:44:24;;;;;;;11.93;5.65;;;-0.90;99.90;;;;;;5025089;28;20107;-61
2023/01/25 00:46:50;;;;;;;12.27;6.43;;;-1.00;99.90;;;;;;5026598;28;20047;-62
2023/01/25 00:49:26;;;;;;;18.75;6.78;;;-1.00;99.90;;;;;;5024349;28;20091;-61
2023/01/25 00:51:54;;;;;;;13.23;6.18;;;-1.00;99.90;;;;;;5023012;28;20041;-61
2023/01/25 00:54:20;;;;;;;13.82;6.97;;;-1.00;99.90;;;;;;5024032;28;20521;-62
2023/01/25 00:56:46;;;;;;;10.77;6.28;;;-1.00;99.90;;;;;;5027116;28;20048;-63
2023/01/25 00:59:13;;;;;;;10.82;5.75;;;-0.90;99.90;;;;;;5024853;28;20053;-62
2023/01/25 01:01:40;;;;;;;13.43;6.75;;;-0.80;99.90;;;;;;5022258;28;20033;-61
2023/01/25 01:04:06;;;;;;;31.50;6.53;;;-0.80;99.90;;;;;;5023933;28;20033;-60
2023/01/25 01:06:34;;;;;;;15.30;8.02;;;-0.90;99.90;;;;;;5023843;28;20134;-63
2023/01/25 01:09:01;;;;;;;13.45;7.10;;;-0.90;99.90;;;;;;5026920;28;20036;-63
2023/01/25 01:11:26;;;;;;;13.75;6.63;;;-0.80;99.90;;;;;;5023189;28;20082;-61
2023/01/25 01:13:52;;;;;;;13.18;6.75;;;-0.90;99.90;;;;;;5024053;28;20117;-61
2023/01/25 01:16:17;;;;;;;16.13;7.05;;;-0.90;99.90;;;;;;5022830;28;20120;-63
2023/01/25 01:18:44;;;;;;;14.48;6.50;;;-0.90;99.90;;;;;;5037915;28;20557;-62
2023/01/25 01:21:12;;;;;;;14.98;6.57;;;-1.00;99.90;;;;;;5024053;28;20698;-62
2023/01/25 01:23:38;;;;;;;16.45;7.38;;;-1.00;99.90;;;;;;5025810;28;20037;-63
2023/01/25 01:26:06;;;;;;;15.00;6.82;;;-1.10;99.90;;;;;;5022532;28;20404;-62
2023/01/25 01:28:32;;;;;;;12.38;6.30;;;-1.00;99.90;;;;;;5022777;28;20064;-63
2023/01/25 01:31:03;;;;;;;12.55;6.50;;;-1.00;99.90;;;;;;5023587;28;20046;-63
2023/01/25 01:33:29;;;;;;;12.35;6.47;;;-1.00;99.90;;;;;;5023253;28;20601;-63
2023/01/25 01:35:54;;;;;;;16.45;6.53;;;-1.00;99.90;;;;;;5023854;28;20049;-61
2023/01/25 01:38:20;;;;;;;10.27;5.47;;;-1.00;99.90;;;;;;5039941;28;20041;-62
2023/01/25 01:40:47;;;;;;;11.55;5.97;;;-0.90;99.90;;;;;;5020451;28;20548;-61
2023/01/25 01:43:20;;;;;;;10.43;5.43;;;-0.90;99.90;;;;;;5023350;28;20114;-62
2023/01/25 01:45:51;;;;;;;11.63;6.13;;;-1.00;99.90;;;;;;5021215;28;20045;-62
2023/01/25 01:48:55;;;;;;;10.52;5.25;;;-1.00;99.90;;;;;;5024243;28;20037;-63
2023/01/25 01:51:42;;;;;;;10.82;6.50;;;-0.90;99.90;;;;;;5006075;28;20045;-63
2023/01/25 01:54:18;;;;;;;14.20;6.35;;;-0.90;99.90;;;;;;5024979;28;20041;-63
2023/01/25 01:56:50;;;;;;;;;;;-0.90;99.90;;;;;;5022806;28;20041;-63
2023/01/25 01:59:16;;;;;;;13.50;6.22;;;-1.00;99.90;;;;;;5024960;28;19970;-63
2023/01/25 02:01:43;;;;;;;11.27;5.55;;;-1.10;99.90;;;;;;5022934;28;20048;-62
2023/01/25 02:04:09;;;;;;;9.60;5.40;;;-1.00;99.90;;;;;;5023099;28;20420;-62
2023/01/25 02:06:45;;;;;;;11.18;6.10;;;-1.10;99.90;;;;;;5022711;28;20045;-62
2023/01/25 02:09:11;;;;;;;10.65;5.28;;;-1.00;99.90;;;;;;5021940;28;20037;-63
2023/01/25 02:11:38;;;;;;;8.88;5.25;;;-1.10;99.90;;;;;;5021371;28;20041;-61
2023/01/25 02:14:05;;;;;;;9.65;5.47;;;-1.00;99.90;;;;;;5023222;28;20059;-62
2023/01/25 02:16:31;;;;;;;10.05;5.20;;;-1.10;99.90;;;;;;5021415;28;20043;-63
2023/01/25 02:19:00;;;;;;;10.55;5.32;;;-1.10;99.90;;;;;;5021876;28;20041;-62
2023/01/25 02:21:32;;;;;;;11.48;4.95;;;-1.10;99.90;;;;;;5021819;28;20041;-62
2023/01/25 02:24:15;;;;;;;11.63;5.35;;;-1.20;99.90;;;;;;5021904;28;20425;-61
2023/01/25 02:26:41;;;;;;;9.77;4.93;;;-1.30;99.90;;;;;;5021997;28;20041;-63
2023/01/25 02:29:08;;;;;;;9.20;4.95;;;-1.40;99.90;;;;;;5022855;28;20179;-63
2023/01/25 02:31:34;;;;;;;7.38;4.10;;;-1.40;99.90;;;;;;5022119;28;20052;-61
2023/01/25 02:34:00;;;;;;;8.25;4.25;;;-1.50;99.90;;;;;;5021877;28;20033;-62
2023/01/25 02:36:29;;;;;;;9.50;5.03;;;-1.60;99.90;;;;;;5035246;28;20072;-63
2023/01/25 02:39:17;;;;;;;6.72;3.70;;;-1.70;99.90;;;;;;5022390;28;20045;-61
2023/01/25 02:41:44;;;;;;;8.27;5.05;;;-1.80;99.90;;;;;;5022634;28;20045;-61
2023/01/25 02:44:31;;;;;;;11.52;4.90;;;-1.80;99.90;;;;;;5038320;28;20038;-62
2023/01/25 02:46:57;;;;;;;12.27;4.93;;;-1.90;99.90;;;;;;5023402;28;20114;-60
2023/01/25 02:49:22;;;;;;;8.25;3.88;;;-1.90;99.90;;;;;;5021889;28;20528;-61
2023/01/25 02:51:56;;;;;;;6.97;3.67;;;-2.00;99.90;;;;;;5022802;28;20075;-63
2023/01/25 02:54:23;;;;;;;7.75;3.83;;;-2.00;99.90;;;;;;5021443;28;20056;-62
2023/01/25 02:56:48;;;;;;;8.63;4.20;;;-2.00;99.90;;;;;;5023479;28;20050;-61
2023/01/25 02:59:14;;;;;;;8.63;4.65;;;-2.00;99.90;;;;;;5022352;28;20123;-62
2023/01/25 03:01:42;;;;;;;6.60;3.88;;;-2.10;99.90;;;;;;5021373;28;20095;-61
2023/01/25 03:04:08;;;;;;;5.78;3.30;;;-2.10;99.90;;;;;;5025496;28;20037;-61
2023/01/25 03:06:34;;;;;;;6.55;3.97;;;-2.10;99.90;;;;;;5023672;28;20034;-62
2023/01/25 03:09:01;;;;;;;7.20;4.03;;;-2.10;99.90;;;;;;5023892;28;20029;-61
2023/01/25 03:11:26;;;;;;;8.30;4.55;;;-2.20;99.90;;;;;;5022232;28;20085;-63
2023/01/25 03:13:52;;;;;;;9.48;4.03;;;-2.20;99.90;;;;;;5024095;28;20473;-63
2023/01/25 03:16:18;;;;;;;7.40;4.18;;;-2.20;99.90;;;;;;5021012;28;20084;-63
2023/01/25 03:18:44;;;;;;;7.15;4.00;;;-2.30;99.90;;;;;;5020178;28;20040;-62
2023/01/25 03:21:18;;;;;;;6.35;3.78;;;-2.30;99.90;;;;;;5017166;28;20131;-64
2023/01/25 03:23:45;;;;;;;6.40;3.42;;;-2.30;99.90;;;;;;5020681;28;20247;-63
2023/01/25 03:26:22;;;;;;;7.10;3.53;;;-2.30;99.90;;;;;;5019953;28;20041;-63
2023/01/25 03:28:48;;;;;;;7.40;3.83;;;-2.40;99.90;;;;;;5021828;28;20041;-63
2023/01/25 03:31:15;;;;;;;7.63;4.03;;;-2.30;99.90;;;;;;5019599;28;20541;-62
2023/01/25 03:33:41;;;;;;;5.80;3.33;;;-2.30;99.90;;;;;;5036783;28;20124;-63
2023/01/25 03:36:07;;;;;;;8.35;4.05;;;-2.20;99.90;;;;;;5022237;28;20144;-62
2023/01/25 03:38:33;;;;;;;7.60;3.83;;;-2.30;99.90;;;;;;5021595;28;20037;-63
2023/01/25 03:40:59;;;;;;;8.73;4.25;;;-2.30;99.90;;;;;;5022388;28;20098;-63
2023/01/25 03:43:25;;;;;;;7.35;4.03;;;-2.40;99.90;;;;;;5023566;28;20045;-63
2023/01/25 03:45:56;;;;;;;8.93;3.88;;;-2.40;99.90;;;;;;5022165;28;20044;-63
2023/01/25 03:48:23;;;;;;;7.00;3.90;;;-2.40;99.90;;;;;;5021995;28;20416;-62
2023/01/25 03:50:50;;;;;;;7.82;3.90;;;-2.50;99.90;;;;;;5018640;28;20513;-62
2023/01/25 03:53:26;;;;;;;7.90;4.30;;;-2.60;99.90;;;;;;5021230;28;20045;-63
2023/01/25 03:55:54;;;;;;;7.38;3.92;;;-2.60;99.90;;;;;;5022880;28;20099;-63
2023/01/25 03:58:19;;;;;;;8.98;4.85;;;-2.70;99.90;;;;;;5024815;28;20047;-62
2023/01/25 04:00:45;;;;;;;11.88;5.57;;;-2.70;99.90;;;;;;5027706;28;20064;-63
2023/01/25 04:03:10;;;;;;;8.75;4.72;;;-2.60;99.90;;;;;;5025912;28;20128;-63
2023/01/25 04:05:36;;;;;;;9.55;4.85;;;-2.60;99.90;;;;;;5025741;28;20436;-63
2023/01/25 04:08:01;;;;;;;8.32;3.65;;;-2.60;99.90;;;;;;5026638;28;20033;-62
2023/01/25 04:10:27;;;;;;;5.75;3.92;;;-2.70;99.90;;;;;;5025222;28;20029;-63
2023/01/25 04:12:52;;;;;;;6.20;3.22;;;-2.70;99.90;;;;;;5027728;28;20037;-63
2023/01/25 04:15:18;;;;;;;6.93;4.03;;;-2.80;99.90;;;;;;5024036;28;20041;-63
2023/01/25 04:17:44;;;;;;;10.60;3.88;;;-2.90;99.90;;;;;;5023797;28;20044;-63
2023/01/25 04:20:10;;;;;;;8.13;3.85;;;-3.00;99.90;;;;;;5024808;28;20037;-62
2023/01/25 04:22:35;;;;;;;9.50;3.65;;;-3.10;99.90;;;;;;5026119;28;20120;-62
2023/01/25 04:25:01;;;;;;;6.00;3.05;;;-3.10;99.90;;;;;;5023780;28;20235;-63
2023/01/25 04:27:27;;;;;;;6.22;3.25;;;-3.20;99.90;;;;;;5027381;28;20041;-62
2023/01/25 04:29:52;;;;;;;5.75;2.97;;;-3.20;99.90;;;;;;5027390;28;20049;-63
2023/01/25 04:32:18;;;;;;;6.38;3.05;;;-3.40;99.90;;;;;;5020288;28;20037;-63
2023/01/25 04:34:43;;;;;;;5.88;3.17;;;-3.40;99.90;;;;;;5024006;28;20040;-63
2023/01/25 04:37:09;;;;;;;7.68;3.78;;;-3.40;99.90;;;;;;5023836;28;20041;-62
2023/01/25 04:39:35;;;;;;;8.88;3.47;;;-3.50;99.90;;;;;;5025055;28;20060;-63
2023/01/25 04:42:00;;;;;;;7.30;3.70;;;-3.60;99.90;;;;;;5027304;28;20120;-62
2023/01/25 04:44:26;;;;;;;6.78;3.42;;;-3.70;99.90;;;;;;5026513;28;20143;-62
2023/01/25 04:46:51;;;;;;;8.23;3.92;;;-3.70;99.90;;;;;;5026089;28;20048;-62
2023/01/25 04:49:17;;;;;;;7.82;3.25;;;-3.70;99.90;;;;;;5023264;28;20086;-62
2023/01/25 04:51:43;;;;;;;5.78;3.13;;;-3.80;99.90;;;;;;5024654;28;20044;-63
2023/01/25 04:54:08;;;;;;;5.25;3.30;;;-3.80;99.90;;;;;;5024603;28;20140;-62
2023/01/25 04:56:34;;;;;;;7.25;3.70;;;-3.80;99.90;;;;;;5025742;28;20049;-62
2023/01/25 04:59:00;;;;;;;6.90;3.47;;;-3.90;99.90;;;;;;5025868;28;20082;-64
2023/01/25 05:01:25;;;;;;;7.70;3.17;;;-4.00;99.90;;;;;;5022865;28;20045;-62
2023/01/25 05:03:51;;;;;;;9.13;2.95;;;-4.10;99.90;;;;;;5022913;28;20052;-63
2023/01/25 05:06:16;;;;;;;7.13;3.50;;;-4.10;99.90;;;;;;5024806;28;20136;-62
2023/01/25 05:08:42;;;;;;;6.50;3.33;;;-4.20;99.90;;;;;;5026607;28;20091;-63
2023/01/25 05:11:08;;;;;;;7.22;3.13;;;-4.20;99.90;;;;;;5024143;28;20048;-63
2023/01/25 05:13:33;;;;;;;5.78;3.03;;;-4.20;99.90;;;;;;5025858;28;20037;-62
2023/01/25 05:15:59;;;;;;;6.88;3.67;;;-4.20;99.90;;;;;;5023294;28;20053;-63
2023/01/25 05:18:24;;;;;;;7.45;2.50;;;-4.20;99.90;;;;;;5023285;28;20392;-62
2023/01/25 05:20:55;;;;;;;6.00;2.88;;;-4.20;99.90;;;;;;5022901;28;20334;-62
2023/01/25 05:23:21;;;;;;;5.65;2.80;;;-4.30;99.90;;;;;;5023973;28;20029;-63
2023/01/25 05:28:31;;;;;;;6.03;3.13;;;-4.20;99.90;;;;;;5023346;28;20038;-62
2023/01/25 05:30:57;;;;;;;6.35;3.00;;;-4.30;99.90;;;;;;5023363;28;20558;-63
2023/01/25 05:33:22;;;;;;;5.25;2.90;;;-4.30;99.90;;;;;;5024748;28;20125;-60
2023/01/25 05:35:48;;;;;;;4.95;2.92;;;-4.40;99.90;;;;;;5025706;28;20144;-63
2023/01/25 05:38:14;;;;;;;4.38;2.40;;;-4.30;99.90;;;;;;5038928;28;20037;-63
2023/01/25 05:40:39;;;;;;;4.07;2.38;;;-4.30;99.90;;;;;;5024575;28;20550;-62
2023/01/25 05:43:05;;;;;;;6.18;3.03;;;-4.20;99.90;;;;;;5025575;28;20116;-63
2023/01/25 05:45:30;;;;;;;6.00;2.50;;;-4.10;99.90;;;;;;5022026;28;20037;-63
2023/01/25 05:47:57;;;;;;;6.13;2.72;;;-4.00;99.90;;;;;;5023279;28;20116;-62
2023/01/25 05:50:24;;;;;;;20.42;5.93;;;-3.90;99.90;;;;;;5023288;28;20559;-63
2023/01/25 05:52:50;;;;;;;27.02;7.25;;;-3.80;99.90;;;;;;5023620;28;20029;-63
2023/01/25 05:55:16;;;;;;;14.48;4.82;;;-3.70;99.90;;;;;;5023328;28;20053;-63
2023/01/25 05:57:42;;;;;;;6.00;3.20;;;-3.60;99.90;;;;;;5023841;28;20436;-63
2023/01/25 06:00:09;;;;;;;7.30;3.05;;;-3.60;99.90;;;;;;5024253;28;21019;-63
2023/01/25 06:02:35;;;;;;;7.15;3.10;;;-3.70;99.90;;;;;;5021668;28;20029;-62
2023/01/25 06:05:02;;;;;;;7.68;3.13;;;-3.80;99.90;;;;;;5023277;28;20041;-62
2023/01/25 06:07:28;;;;;;;6.40;2.90;;;-3.80;99.90;;;;;;5023538;28;21543;-63
2023/01/25 06:09:53;;;;;;;6.28;3.03;;;-4.00;99.90;;;;;;5025126;28;20075;-63
2023/01/25 06:12:20;;;;;;;7.03;2.88;;;-4.00;99.90;;;;;;5023616;28;20409;-62
2023/01/25 06:14:46;;;;;;;4.72;2.63;;;-4.10;99.90;;;;;;5023703;28;20584;-63
2023/01/25 06:17:12;;;;;;;5.07;2.97;;;-4.10;99.90;;;;;;5022483;28;20041;-63
2023/01/25 06:19:38;;;;;;;13.45;4.00;;;-4.00;99.90;;;;;;5022582;28;20036;-63
2023/01/25 06:22:06;;;;;;;8.75;4.03;;;-3.90;99.90;;;;;;5022299;28;20029;-63
2023/01/25 06:24:32;;;;;;;7.15;3.22;;;-3.90;99.90;;;;;;5020756;28;21301;-62
2023/01/25 06:26:58;;;;;;;8.50;3.28;;;-3.90;99.90;;;;;;5022902;28;20129;-61
2023/01/25 06:29:23;;;;;;;7.15;3.55;;;-3.80;99.90;;;;;;5022459;28;20037;-63
2023/01/25 06:31:49;;;;;;;7.20;3.40;;;-3.80;99.90;;;;;;5020613;28;20087;-62
2023/01/25 06:34:15;;;;;;;9.05;3.65;;;-3.80;99.90;;;;;;5019952;28;20041;-62
2023/01/25 06:36:41;;;;;;;7.35;3.25;;;-3.70;99.90;;;;;;5021130;28;20095;-63
2023/01/25 06:39:08;;;;;;;6.10;2.83;;;-3.80;99.90;;;;;;5020380;28;20033;-63
2023/01/25 06:41:33;;;;;;;4.88;2.80;;;-3.80;99.90;;;;;;5020904;28;20048;-62
2023/01/25 06:43:59;;;;;;;6.85;3.17;;;-3.80;99.90;;;;;;5019879;28;20045;-62
2023/01/25 06:46:24;;;;;;;6.53;2.88;;;-3.90;99.90;;;;;;5020323;28;20046;-62
2023/01/25 06:48:50;;;;;;;7.00;3.40;;;-4.00;99.90;;;;;;5020345;28;20063;-63
2023/01/25 06:51:16;;;;;;;8.15;3.28;;;-4.10;99.90;;;;;;5021358;28;20128;-62
2023/01/25 06:53:44;;;;;;;8.00;3.65;;;-4.30;99.90;;;;;;5021072;28;20048;-63
2023/01/25 06:56:19;;;;;;;6.25;3.03;;;-4.40;99.90;;;;;;5021442;28;20516;-63
2023/01/25 06:58:45;;;;;;;7.65;2.60;;;-4.50;99.90;;;;;;5019111;28;20103;-63
2023/01/25 07:01:15;;;;;;;7.57;3.85;;;-4.70;99.90;;;;;;5022490;28;20046;-61
2023/01/25 07:03:41;;;;;;;10.55;4.68;;;-4.80;99.90;;;;;;5024394;28;20050;-65
2023/01/25 07:06:09;;;;;;;9.13;3.85;;;-4.80;99.90;;;;;;5020262;28;20063;-64
2023/01/25 07:08:35;;;;;;;8.80;4.30;;;-4.80;99.90;;;;;;5019776;28;20168;-63
2023/01/25 07:11:03;;;;;;;11.25;5.03;;;-4.80;99.90;;;;;;5022894;28;20040;-64
2023/01/25 07:13:30;;;;;;;11.52;5.18;;;-4.80;99.90;;;;;;5020510;28;20049;-64
2023/01/25 07:15:57;;;;;;;10.57;5.45;;;-4.90;99.90;;;;;;5021216;28;20045;-63
2023/01/25 07:18:25;;;;;;;10.55;5.40;;;-4.90;99.90;;;;;;5022112;28;20053;-63
2023/01/25 07:20:51;;;;;;;17.45;6.55;;;-5.00;99.90;;;;;;5021215;28;20599;-63
2023/01/25 07:23:17;;;;;;;14.75;6.43;;;-5.00;99.90;;;;;;5021785;28;20038;-59
2023/01/25 07:25:47;;;;;;;12.93;5.40;;;-5.00;99.90;;;;;;5022084;28;20039;-59
2023/01/25 07:28:14;;;;;;;13.18;5.80;;;-5.00;99.90;;;;;;5026149;28;20033;-62
2023/01/25 07:30:40;;;;;;;11.75;5.43;;;-4.90;99.90;;;;;;5027538;28;20454;-63
2023/01/25 07:33:07;;;;;;;11.02;4.95;;;-4.90;99.90;;;;;;5026829;28;20037;-63
2023/01/25 07:35:32;;;;;;;14.50;5.53;;;-5.00;99.90;;;;;;5025032;28;20072;-61
2023/01/25 07:37:58;;;;;;;11.75;5.15;;;-5.00;99.90;;;;;;5027496;28;20041;-60
2023/01/25 07:40:24;;;;;;;11.13;4.75;;;-5.00;99.90;;;;;;5028170;28;20037;-62
2023/01/25 07:42:53;;;;;;;11.40;4.85;;;-4.90;99.90;;;;;;5025617;28;20048;-61
2023/01/25 07:45:19;;;;;;;9.35;4.65;;;-5.00;99.90;;;;;;5022374;28;20041;-63
2023/01/25 07:47:45;;;;;;;9.15;4.75;;;-5.00;99.90;;;;;;5006086;28;20116;-60
2023/01/25 07:50:11;;;;;;;12.80;4.85;;;-5.00;99.90;;;;;;5026673;28;20033;-61
2023/01/25 07:52:37;;;;;;;9.13;4.18;;;-4.90;99.90;;;;;;5026593;28;20048;-61
2023/01/25 07:55:03;;;;;;;9.50;4.13;;;-5.00;99.90;;;;;;5022910;28;20120;-64
2023/01/25 07:57:29;;;;;;;11.35;4.75;;;-5.00;99.90;;;;;;5026034;28;20046;-63
2023/01/25 07:59:55;;;;;;;9.40;4.20;;;-5.10;99.90;;;;;;5026845;28;20052;-62
2023/01/25 08:02:20;;;;;;;11.48;5.25;;;-5.00;99.90;;;;;;5024362;28;20046;-62
2023/01/25 08:04:46;;;;;;;9.80;4.80;;;-5.00;99.90;;;;;;5022629;28;20052;-63
2023/01/25 08:07:13;;;;;;;8.70;4.30;;;-5.00;99.90;;;;;;5023387;28;20517;-62
2023/01/25 08:09:40;;;;;;;12.18;4.53;;;-5.00;99.90;;;;;;5024390;28;20037;-63
2023/01/25 08:12:06;;;;;;;7.85;4.43;;;-5.00;99.90;;;;;;5023985;28;20044;-63
2023/01/25 08:14:32;;;;;;;6.10;3.63;;;-4.90;99.90;;;;;;5037482;28;20045;-61
2023/01/25 08:16:58;;;;;;;8.63;4.43;;;-4.80;99.90;;;;;;5023990;28;20567;-63
2023/01/25 08:19:24;;;;;;;7.35;4.47;;;-4.80;99.90;;;;;;5023289;28;20046;-62
2023/01/25 08:21:50;;;;;;;14.63;7.35;;;-4.80;99.90;;;;;;5025014;28;20033;-64
2023/01/25 08:24:16;;;;;;;10.75;4.78;;;-4.60;99.90;;;;;;5023665;28;20070;-61
2023/01/25 08:26:42;;;;;;;12.52;5.25;;;-4.50;99.90;;;;;;5024671;28;20602;-62
2023/01/25 08:29:09;;;;;;;10.48;5.28;;;-4.30;99.90;;;;;;5024036;28;20501;-61
2023/01/25 08:31:35;;;;;;;8.82;4.60;;;-4.30;99.90;;;;;;5024942;28;20602;-63
2023/01/25 08:34:02;;;;;;;12.27;6.22;;;-4.20;99.90;;;;;;5040716;28;20059;-60
2023/01/25 08:36:28;;;;;;;20.63;11.05;;;-4.20;99.90;;;;;;5024230;28;20424;-62
2023/01/25 08:38:59;;;;;;;10.70;5.65;;;-4.00;99.90;;;;;;5023220;28;20034;-63
2023/01/25 08:41:27;;;;;;;25.33;5.82;;;-3.80;99.90;;;;;;5024902;28;20049;-61
2023/01/25 08:43:53;;;;;;;16.55;6.68;;;-3.80;99.90;;;;;;5028060;28;20099;-60
2023/01/25 08:46:21;;;;;;;10.05;4.47;;;-3.60;99.90;;;;;;5024422;28;20538;-62
2023/01/25 08:48:47;;;;;;;6.95;3.90;;;-3.60;99.90;;;;;;5026295;28;20142;-60
2023/01/25 08:51:15;;;;;;;7.65;4.22;;;-3.60;99.90;;;;;;5026074;28;20566;-61
2023/01/25 08:53:40;;;;;;;7.28;4.50;;;-3.50;99.90;;;;;;5026046;28;20179;-60
2023/01/25 08:56:09;;;;;;;9.30;4.65;;;-3.40;99.90;;;;;;5025884;28;20116;-64
2023/01/25 08:58:37;;;;;;;8.57;4.75;;;-3.40;99.90;;;;;;5025380;28;20045;-61
2023/01/25 09:01:04;;;;;;;15.65;5.15;;;-3.40;99.90;;;;;;5023733;28;20053;-62
2023/01/25 09:03:31;;;;;;;10.13;5.07;;;-3.40;99.90;;;;;;5025825;28;20175;-61
2023/01/25 09:05:56;;;;;;;9.07;4.88;;;-3.30;99.90;;;;;;5023002;28;20183;-63
2023/01/25 09:08:22;;;;;;;10.23;5.30;;;-3.30;99.90;;;;;;5023574;28;20748;-63
2023/01/25 09:10:48;;;;;;;13.18;6.57;;;-3.20;99.90;;;;;;5025831;28;20052;-63
2023/01/25 09:13:13;;;;;;;12.80;6.50;;;-3.30;99.90;;;;;;5024640;28;20080;-63
2023/01/25 09:15:39;;;;;;;16.98;7.53;;;-3.20;99.90;;;;;;5023534;28;20069;-63
2023/01/25 09:18:05;;;;;;;12.52;6.28;;;-3.30;99.90;;;;;;5024423;28;20060;-63
2023/01/25 09:20:31;;;;;;;13.85;7.18;;;-3.10;99.90;;;;;;5023093;28;20045;-64
2023/01/25 09:22:56;;;;;;;13.90;6.30;;;-3.00;99.90;;;;;;5025162;28;20425;-63
2023/01/25 09:25:22;;;;;;;15.65;6.35;;;-2.80;99.90;;;;;;5023870;28;20045;-61
2023/01/25 09:27:50;;;;;;;15.88;6.28;;;-2.90;99.90;;;;;;5021723;28;20489;-65
2023/01/25 09:30:17;;;;;;;14.10;6.25;;;-2.70;99.90;;;;;;5023154;28;20073;-63
2023/01/25 09:32:43;;;;;;;12.05;5.43;;;-2.70;99.90;;;;;;5021185;28;20045;-66
2023/01/25 09:35:09;;;;;;;11.20;5.03;;;-2.60;99.90;;;;;;5021941;28;20045;-63
2023/01/25 09:37:35;;;;;;;12.73;5.72;;;-2.50;99.90;;;;;;5021884;28;20065;-64
2023/01/25 09:40:03;;;;;;;14.02;5.55;;;-2.30;99.90;;;;;;5023244;28;20079;-63
2023/01/25 09:43:04;;;;;;;17.35;7.55;;;-2.20;99.90;;;;;;5023920;28;20029;-64
2023/01/25 09:45:34;;;;;;;14.07;7.05;;;-2.10;99.90;;;;;;5007270;28;20046;-64
2023/01/25 09:48:18;;;;;;;14.05;6.70;;;-2.10;99.90;;;;;;5022903;28;20044;-62
2023/01/25 09:51:14;;;;;;;13.93;7.10;;;-2.00;99.90;;;;;;5021011;28;20502;-65
2023/01/25 09:53:52;;;;;;;14.85;7.53;;;-2.00;99.90;;;;;;5022677;28;20485;-61
2023/01/25 09:56:26;;;;;;;16.00;7.85;;;-1.90;99.90;;;;;;5021172;28;20049;-62
2023/01/25 09:58:57;;;;;;;16.33;8.38;;;-1.90;99.90;;;;;;5024235;28;20120;-65
2023/01/25 10:01:50;;;;;;;19.00;8.90;;;-1.80;99.90;;;;;;5021495;28;20156;-63
2023/01/25 10:04:15;;;;;;;18.90;9.23;;;-1.90;99.90;;;;;;5021658;28;20100;-63
2023/01/25 10:06:44;;;;;;;23.98;11.80;;;-1.80;99.90;;;;;;5023087;28;20076;-64
2023/01/25 10:09:29;;;;;;;17.98;8.63;;;-1.70;99.90;;;;;;5021413;28;20049;-63
2023/01/25 10:11:58;;;;;;;14.95;8.15;;;-1.60;99.90;;;;;;5022309;28;20178;-63
2023/01/25 10:14:24;;;;;;;15.20;7.47;;;-1.60;99.90;;;;;;5021574;28;20044;-63
2023/01/25 10:17:00;;;;;;;12.18;6.10;;;-1.50;99.90;;;;;;5020664;28;20045;-63
2023/01/25 10:20:18;;;;;;;10.75;5.75;;;-1.40;99.90;;;;;;5021102;28;20819;-63
2023/01/25 10:23:12;;;;;;;14.60;7.00;;;-1.10;99.90;;;;;;5007412;28;20049;-63
2023/01/25 10:25:46;;;;;;;18.70;8.32;;;-0.90;99.90;;;;;;5022237;28;20045;-63
2023/01/25 10:28:23;;;;;;;12.18;6.57;;;-0.80;99.90;;;;;;5021750;28;20124;-62
2023/01/25 10:30:56;;;;;;;12.20;6.20;;;-0.70;99.90;;;;;;5021702;28;20437;-63
2023/01/25 10:33:22;;;;;;;14.05;6.50;;;-0.40;99.90;;;;;;5021746;28;20080;-62
2023/01/25 10:35:49;;;;;;;10.52;5.78;;;-0.30;99.90;;;;;;5022956;28;20069;-64
2023/01/25 10:38:31;;;;;;;17.08;6.90;;;-0.20;99.90;;;;;;5021736;28;20064;-61
2023/01/25 10:41:40;;;;;;;12.77;5.43;;;-0.20;99.90;;;;;;5021193;28;20076;-63
2023/01/25 10:44:25;;;;;;;14.65;6.80;;;0.00;99.90;;;;;;5001136;28;20434;-62
2023/01/25 10:46:56;;;;;;;11.55;5.75;;;0.00;99.90;;;;;;5019621;28;20041;-64
2023/01/25 10:49:46;;;;;;;10.68;5.25;;;0.20;99.90;;;;;;5021944;28;20052;-65
2023/01/25 10:52:17;;;;;;;11.98;6.18;;;0.30;99.90;;;;;;5020918;28;20042;-64
2023/01/25 10:54:43;;;;;;;14.88;6.28;;;0.40;99.90;;;;;;5017262;28;20044;-64
2023/01/25 10:57:21;;;;;;;15.93;7.28;;;0.40;99.90;;;;;;5020565;28;20508;-65
2023/01/25 10:59:51;;;;;;;16.17;6.38;;;0.40;99.90;;;;;;5020484;28;20047;-67
2023/01/25 11:02:35;;;;;;;14.85;7.03;;;0.40;99.90;;;;;;5018865;28;20041;-64
2023/01/25 11:05:34;;;;;;;16.10;7.78;;;0.50;99.90;;;;;;5020338;28;20044;-64
2023/01/25 11:08:36;;;;;;;16.05;7.28;;;0.40;99.90;;;;;;4988722;28;20053;-64
2023/01/25 11:11:13;;;;;;;9.73;5.45;;;0.40;99.90;;;;;;5000023;28;20038;-65
2023/01/25 11:13:40;;;;;;;13.55;5.70;;;0.40;99.90;;;;;;5021447;28;20052;-65
2023/01/25 11:16:19;;;;;;;11.18;4.45;;;0.40;99.90;;;;;;5013585;28;20080;-63
2023/01/25 11:18:53;;;;;;;12.98;6.07;;;0.50;99.90;;;;;;5020033;28;20079;-65
2023/01/25 11:21:22;;;;;;;15.45;7.82;;;0.50;99.90;;;;;;5019870;28;20390;-65
2023/01/25 11:24:16;;;;;;;10.88;5.95;;;0.50;99.90;;;;;;5022538;28;20041;-61
2023/01/25 11:26:43;;;;;;;10.45;5.43;;;0.60;99.90;;;;;;5017899;28;20042;-63
2023/01/25 11:29:20;;;;;;;8.77;5.00;;;0.70;99.90;;;;;;5019876;28;20037;-66
2023/01/25 11:31:54;;;;;;;12.05;5.28;;;0.70;99.90;;;;;;5020286;28;20095;-63
2023/01/25 11:34:27;;;;;;;13.63;5.53;;;0.80;99.90;;;;;;5021201;28;20743;-62
2023/01/25 11:37:30;;;;;;;8.48;4.72;;;0.90;99.90;;;;;;5023180;28;20053;-63
2023/01/25 11:40:15;;;;;;;9.18;4.93;;;0.90;99.90;;;;;;5036263;28;20148;-63
2023/01/25 11:43:05;;;;;;;10.38;5.03;;;1.00;99.90;;;;;;5021435;28;20591;-62
2023/01/25 11:45:44;;;;;;;8.88;5.22;;;1.10;99.90;;;;;;5020014;28;20087;-61
2023/01/25 11:48:31;;;;;;;10.52;5.93;;;1.20;99.90;;;;;;5019398;28;20050;-62
2023/01/25 11:51:12;;;;;;;10.02;5.43;;;1.10;99.90;;;;;;5019256;28;21052;-62
2023/01/25 11:54:02;;;;;;;9.40;4.95;;;1.20;99.90;;;;;;5019513;28;20127;-63
2023/01/25 11:56:34;;;;;;;8.70;5.28;;;1.10;99.90;;;;;;5021418;28;20885;-63
2023/01/25 11:59:30;;;;;;;9.13;5.43;;;1.30;99.90;;;;;;5021341;28;20099;-63
2023/01/25 12:02:22;;;;;;;9.13;5.57;;;1.20;99.90;;;;;;5020003;28;20128;-62
2023/01/25 12:04:48;;;;;;;9.70;5.38;;;1.30;99.90;;;;;;5021518;28;20033;-62
2023/01/25 12:07:37;;;;;;;11.80;5.68;;;1.30;99.90;;;;;;5021848;28;20099;-63
2023/01/25 12:10:17;;;;;;;11.60;5.90;;;1.30;99.90;;;;;;5023094;28;20029;-63
2023/01/25 12:13:02;;;;;;;12.30;5.90;;;1.40;99.90;;;;;;5037340;28;20077;-64
2023/01/25 12:15:47;;;;;;;10.85;5.43;;;1.40;99.90;;;;;;5022162;28;20040;-62
2023/01/25 12:18:45;;;;;;;10.40;5.30;;;1.30;99.90;;;;;;5025198;28;20548;-63
2023/01/25 12:21:22;;;;;;;13.10;5.55;;;1.40;99.90;;;;;;5038952;28;20119;-63
2023/01/25 12:24:05;;;;;;;10.02;5.28;;;1.50;99.90;;;;;;5024892;28;20063;-63
2023/01/25 12:27:17;;;;;;;11.23;5.38;;;1.50;99.90;;;;;;5024997;28;20033;-63
2023/01/25 12:30:14;;;;;;;9.85;5.13;;;1.50;99.90;;;;;;5026248;28;20038;-64
2023/01/25 12:32:48;;;;;;;10.07;5.82;;;1.60;99.90;;;;;;5014292;28;20047;-63
2023/01/25 12:35:37;;;;;;;11.70;5.68;;;1.60;99.90;;;;;;5021351;28;20037;-65
2023/01/25 12:38:25;;;;;;;10.73;5.40;;;1.60;99.90;;;;;;5022857;28;20299;-65
2023/01/25 12:41:07;;;;;;;10.35;5.70;;;1.80;99.90;;;;;;5023537;28;20565;-66
2023/01/25 12:43:39;;;;;;;11.25;5.55;;;1.90;99.90;;;;;;5022768;28;20037;-65
2023/01/25 12:47:03;;;;;;;12.27;5.85;;;1.90;99.90;;;;;;5025029;28;20512;-65
2023/01/25 12:49:58;;;;;;;9.32;5.35;;;1.90;99.90;;;;;;4954813;28;20053;-65
2023/01/25 12:52:29;;;;;;;9.05;5.40;;;1.90;99.90;;;;;;5025095;28;20038;-65
2023/01/25 12:54:59;;;;;;;9.77;4.85;;;1.80;99.90;;;;;;5022507;28;20048;-65
2023/01/25 12:58:04;;;;;;;10.85;5.43;;;1.80;99.90;;;;;;5024829;28;20041;-65
2023/01/25 13:00:51;;;;;;;10.95;5.70;;;1.90;99.90;;;;;;5020108;28;20048;-65
2023/01/25 13:03:42;;;;;;;13.30;5.82;;;1.90;99.90;;;;;;5024208;28;20504;-65
2023/01/25 13:06:30;;;;;;;10.57;5.55;;;1.80;99.90;;;;;;5023900;28;20497;-65